sensor_id;sensor_type;location;lat;lon;timestamp;temperature;humidity
18721;DHT22;9489;50.948;3.114;2023-07-13T00:02:23;16.30;99.90
18721;DHT22;9489;50.948;3.114;2023-07-13T00:04:49;16.20;99.90
18721;DHT22;9489;50.948;3.114;2023-07-13T00:07:16;16.20;99.90
18721;DHT22;9489;50.948;3.114;2023-07-13T00:09:45;16.20;99.90
18721;DHT22;9489;50.948;3.114;2023-07-13T00:12:27;16.30;99.90
18721;DHT22;9489;50.948;3.114;2023-07-13T00:14:55;16.20;99.90
18721;DHT22;9489;50.948;3.114;2023-07-13T00:17:21;16.20;99.90
18721;DHT22;9489;50.948;3.114;2023-07-13T00:19:47;16.20;99.90
18721;DHT22;9489;50.948;3.114;2023-07-13T00:22:13;16.20;99.90
18721;DHT22;9489;50.948;3.114;2023-07-13T00:24:39;16.10;99.90
18721;DHT22;9489;50.948;3.114;2023-07-13T00:27:10;16.10;99.90
18721;DHT22;9489;50.948;3.114;2023-07-13T00:29:36;16.10;99.90
18721;DHT22;9489;50.948;3.114;2023-07-13T00:32:05;16.10;99.90
18721;DHT22;9489;50.948;3.114;2023-07-13T00:34:32;16.00;99.90
18721;DHT22;9489;50.948;3.114;2023-07-13T00:36:58;16.00;99.90
18721;DHT22;9489;50.948;3.114;2023-07-13T00:39:24;16.00;99.90
18721;DHT22;9489;50.948;3.114;2023-07-13T00:41:50;16.00;99.90
18721;DHT22;9489;50.948;3.114;2023-07-13T00:44:18;16.00;99.90
18721;DHT22;9489;50.948;3.114;2023-07-13T00:46:44;16.00;99.90
18721;DHT22;9489;50.948;3.114;2023-07-13T00:49:14;16.00;99.90
18721;DHT22;9489;50.948;3.114;2023-07-13T00:51:49;16.00;99.90
18721;DHT22;9489;50.948;3.114;2023-07-13T00:54:22;16.00;99.90
18721;DHT22;9489;50.948;3.114;2023-07-13T00:56:52;16.00;99.90
18721;DHT22;9489;50.948;3.114;2023-07-13T00:59:20;16.00;99.90
18721;DHT22;9489;50.948;3.114;2023-07-13T01:01:47;16.00;99.90
18721;DHT22;9489;50.948;3.114;2023-07-13T01:04:13;15.90;99.90
18721;DHT22;9489;50.948;3.114;2023-07-13T01:06:40;15.90;99.90
18721;DHT22;9489;50.948;3.114;2023-07-13T01:09:07;15.90;99.90
18721;DHT22;9489;50.948;3.114;2023-07-13T01:11:34;15.90;99.90
18721;DHT22;9489;50.948;3.114;2023-07-13T01:14:01;15.90;99.90
18721;DHT22;9489;50.948;3.114;2023-07-13T01:16:31;15.80;99.90
18721;DHT22;9489;50.948;3.114;2023-07-13T01:18:58;15.90;99.90
18721;DHT22;9489;50.948;3.114;2023-07-13T01:21:26;15.80;99.90
18721;DHT22;9489;50.948;3.114;2023-07-13T01:23:52;15.80;99.90
18721;DHT22;9489;50.948;3.114;2023-07-13T01:26:17;15.80;99.90
18721;DHT22;9489;50.948;3.114;2023-07-13T01:28:43;15.70;99.90
18721;DHT22;9489;50.948;3.114;2023-07-13T01:31:09;15.80;99.90
18721;DHT22;9489;50.948;3.114;2023-07-13T01:33:37;15.80;99.90
18721;DHT22;9489;50.948;3.114;2023-07-13T01:36:08;15.80;99.90
18721;DHT22;9489;50.948;3.114;2023-07-13T01:38:35;15.80;99.90
18721;DHT22;9489;50.948;3.114;2023-07-13T01:41:02;15.70;99.90
18721;DHT22;9489;50.948;3.114;2023-07-13T01:43:28;15.70;99.90
18721;DHT22;9489;50.948;3.114;2023-07-13T01:45:54;15.80;99.90
18721;DHT22;9489;50.948;3.114;2023-07-13T01:48:20;15.80;99.90
18721;DHT22;9489;50.948;3.114;2023-07-13T01:50:47;15.70;99.90
18721;DHT22;9489;50.948;3.114;2023-07-13T01:53:12;15.80;99.90
18721;DHT22;9489;50.948;3.114;2023-07-13T01:55:38;15.80;99.90
18721;DHT22;9489;50.948;3.114;2023-07-13T01:58:04;15.70;99.90
18721;DHT22;9489;50.948;3.114;2023-07-13T02:00:30;15.70;99.90
18721;DHT22;9489;50.948;3.114;2023-07-13T02:02:56;15.70;99.90
18721;DHT22;9489;50.948;3.114;2023-07-13T02:05:23;15.70;99.90
18721;DHT22;9489;50.948;3.114;2023-07-13T02:07:48;15.80;99.90
18721;DHT22;9489;50.948;3.114;2023-07-13T02:10:15;15.70;99.90
18721;DHT22;9489;50.948;3.114;2023-07-13T02:12:41;15.70;99.90
18721;DHT22;9489;50.948;3.114;2023-07-13T02:15:08;15.70;99.90
18721;DHT22;9489;50.948;3.114;2023-07-13T02:17:35;15.60;99.90
18721;DHT22;9489;50.948;3.114;2023-07-13T02:20:02;15.60;99.90
18721;DHT22;9489;50.948;3.114;2023-07-13T02:22:27;15.60;99.90
18721;DHT22;9489;50.948;3.114;2023-07-13T02:24:53;15.60;99.90
18721;DHT22;9489;50.948;3.114;2023-07-13T02:27:19;15.60;99.90
18721;DHT22;9489;50.948;3.114;2023-07-13T02:29:45;15.60;99.90
18721;DHT22;9489;50.948;3.114;2023-07-13T02:32:10;15.50;99.90
18721;DHT22;9489;50.948;3.114;2023-07-13T02:34:36;15.60;99.90
18721;DHT22;9489;50.948;3.114;2023-07-13T02:37:02;15.50;99.90
18721;DHT22;9489;50.948;3.114;2023-07-13T02:39:28;15.50;99.90
18721;DHT22;9489;50.948;3.114;2023-07-13T02:41:53;15.50;99.90
18721;DHT22;9489;50.948;3.114;2023-07-13T02:44:19;15.50;99.90
18721;DHT22;9489;50.948;3.114;2023-07-13T02:46:44;15.50;99.90
18721;DHT22;9489;50.948;3.114;2023-07-13T02:49:10;15.50;99.90
18721;DHT22;9489;50.948;3.114;2023-07-13T02:51:36;15.50;99.90
18721;DHT22;9489;50.948;3.114;2023-07-13T02:54:03;15.50;99.90
18721;DHT22;9489;50.948;3.114;2023-07-13T02:56:30;15.50;99.90
18721;DHT22;9489;50.948;3.114;2023-07-13T02:58:56;15.60;99.90
18721;DHT22;9489;50.948;3.114;2023-07-13T03:01:22;15.60;99.90
18721;DHT22;9489;50.948;3.114;2023-07-13T03:03:49;15.60;99.90
18721;DHT22;9489;50.948;3.114;2023-07-13T03:06:15;15.60;99.90
18721;DHT22;9489;50.948;3.114;2023-07-13T03:08:42;15.70;99.90
18721;DHT22;9489;50.948;3.114;2023-07-13T03:11:14;15.60;99.90
18721;DHT22;9489;50.948;3.114;2023-07-13T03:13:40;15.70;99.90
18721;DHT22;9489;50.948;3.114;2023-07-13T03:16:07;15.60;99.90
18721;DHT22;9489;50.948;3.114;2023-07-13T03:18:33;15.60;99.90
18721;DHT22;9489;50.948;3.114;2023-07-13T03:20:59;15.60;99.90
18721;DHT22;9489;50.948;3.114;2023-07-13T03:23:25;15.50;99.90
18721;DHT22;9489;50.948;3.114;2023-07-13T03:26:10;15.60;99.90
18721;DHT22;9489;50.948;3.114;2023-07-13T03:28:37;15.50;99.90
18721;DHT22;9489;50.948;3.114;2023-07-13T03:31:09;15.50;99.90
18721;DHT22;9489;50.948;3.114;2023-07-13T03:33:35;15.50;99.90
18721;DHT22;9489;50.948;3.114;2023-07-13T03:36:03;15.50;99.90
18721;DHT22;9489;50.948;3.114;2023-07-13T03:38:29;15.40;99.90
18721;DHT22;9489;50.948;3.114;2023-07-13T03:40:55;15.50;99.90
18721;DHT22;9489;50.948;3.114;2023-07-13T03:43:20;15.40;99.90
18721;DHT22;9489;50.948;3.114;2023-07-13T03:45:46;15.50;99.90
18721;DHT22;9489;50.948;3.114;2023-07-13T03:48:13;15.50;99.90
18721;DHT22;9489;50.948;3.114;2023-07-13T03:50:39;15.50;99.90
18721;DHT22;9489;50.948;3.114;2023-07-13T03:53:04;15.50;99.90
18721;DHT22;9489;50.948;3.114;2023-07-13T03:55:30;15.50;99.90
18721;DHT22;9489;50.948;3.114;2023-07-13T04:00:46;15.60;99.90
18721;DHT22;9489;50.948;3.114;2023-07-13T04:03:11;15.60;99.90
18721;DHT22;9489;50.948;3.114;2023-07-13T04:05:38;15.60;99.90
18721;DHT22;9489;50.948;3.114;2023-07-13T04:08:06;15.60;99.90
18721;DHT22;9489;50.948;3.114;2023-07-13T04:10:32;15.60;99.90
18721;DHT22;9489;50.948;3.114;2023-07-13T04:12:57;15.60;99.90
18721;DHT22;9489;50.948;3.114;2023-07-13T04:15:23;15.60;99.90
18721;DHT22;9489;50.948;3.114;2023-07-13T04:17:49;15.70;99.90
18721;DHT22;9489;50.948;3.114;2023-07-13T04:20:14;15.70;99.90
18721;DHT22;9489;50.948;3.114;2023-07-13T04:22:40;15.70;99.90
18721;DHT22;9489;50.948;3.114;2023-07-13T04:25:06;15.70;99.90
18721;DHT22;9489;50.948;3.114;2023-07-13T04:27:31;15.80;99.90
18721;DHT22;9489;50.948;3.114;2023-07-13T04:29:57;15.90;99.90
18721;DHT22;9489;50.948;3.114;2023-07-13T04:32:23;15.90;99.90
18721;DHT22;9489;50.948;3.114;2023-07-13T04:34:48;16.00;99.90
18721;DHT22;9489;50.948;3.114;2023-07-13T04:37:19;16.10;99.90
18721;DHT22;9489;50.948;3.114;2023-07-13T04:39:45;16.20;99.90
18721;DHT22;9489;50.948;3.114;2023-07-13T04:42:11;16.20;99.90
18721;DHT22;9489;50.948;3.114;2023-07-13T04:44:36;16.30;99.90
18721;DHT22;9489;50.948;3.114;2023-07-13T04:47:02;16.30;99.90
18721;DHT22;9489;50.948;3.114;2023-07-13T04:49:27;16.30;99.90
18721;DHT22;9489;50.948;3.114;2023-07-13T04:51:53;16.40;99.90
18721;DHT22;9489;50.948;3.114;2023-07-13T04:54:20;16.50;99.90
18721;DHT22;9489;50.948;3.114;2023-07-13T04:56:47;16.50;99.90
18721;DHT22;9489;50.948;3.114;2023-07-13T04:59:13;16.50;99.90
18721;DHT22;9489;50.948;3.114;2023-07-13T05:01:38;16.60;99.90
18721;DHT22;9489;50.948;3.114;2023-07-13T05:04:04;16.60;99.90
18721;DHT22;9489;50.948;3.114;2023-07-13T05:06:30;16.60;99.90
18721;DHT22;9489;50.948;3.114;2023-07-13T05:08:56;16.70;99.90
18721;DHT22;9489;50.948;3.114;2023-07-13T05:11:22;16.70;99.90
18721;DHT22;9489;50.948;3.114;2023-07-13T05:13:48;16.80;99.90
18721;DHT22;9489;50.948;3.114;2023-07-13T05:16:13;16.80;99.90
18721;DHT22;9489;50.948;3.114;2023-07-13T05:18:39;16.80;99.90
18721;DHT22;9489;50.948;3.114;2023-07-13T05:21:07;16.80;99.90
18721;DHT22;9489;50.948;3.114;2023-07-13T05:23:33;16.90;99.90
18721;DHT22;9489;50.948;3.114;2023-07-13T05:25:59;16.90;99.90
18721;DHT22;9489;50.948;3.114;2023-07-13T05:28:26;16.90;99.90
18721;DHT22;9489;50.948;3.114;2023-07-13T05:30:52;17.00;99.90
18721;DHT22;9489;50.948;3.114;2023-07-13T05:33:19;17.10;99.90
18721;DHT22;9489;50.948;3.114;2023-07-13T05:35:45;17.10;99.90
18721;DHT22;9489;50.948;3.114;2023-07-13T05:38:11;17.20;99.90
18721;DHT22;9489;50.948;3.114;2023-07-13T05:40:37;17.20;99.90
18721;DHT22;9489;50.948;3.114;2023-07-13T05:43:03;17.20;99.90
18721;DHT22;9489;50.948;3.114;2023-07-13T05:45:29;17.30;99.90
18721;DHT22;9489;50.948;3.114;2023-07-13T05:47:54;17.30;99.90
18721;DHT22;9489;50.948;3.114;2023-07-13T05:50:20;17.40;99.90
18721;DHT22;9489;50.948;3.114;2023-07-13T05:52:46;17.50;99.90
18721;DHT22;9489;50.948;3.114;2023-07-13T05:55:12;17.50;99.90
18721;DHT22;9489;50.948;3.114;2023-07-13T05:57:38;17.50;99.90
18721;DHT22;9489;50.948;3.114;2023-07-13T06:00:05;17.50;99.90
18721;DHT22;9489;50.948;3.114;2023-07-13T06:02:30;17.60;99.90
18721;DHT22;9489;50.948;3.114;2023-07-13T06:04:56;17.70;99.90
18721;DHT22;9489;50.948;3.114;2023-07-13T06:07:22;17.70;99.90
18721;DHT22;9489;50.948;3.114;2023-07-13T06:09:47;17.80;99.90
18721;DHT22;9489;50.948;3.114;2023-07-13T06:12:13;17.70;99.90
18721;DHT22;9489;50.948;3.114;2023-07-13T06:14:38;17.80;99.90
18721;DHT22;9489;50.948;3.114;2023-07-13T06:17:04;17.90;99.90
18721;DHT22;9489;50.948;3.114;2023-07-13T06:19:30;18.00;99.90
18721;DHT22;9489;50.948;3.114;2023-07-13T06:21:56;18.00;99.90
18721;DHT22;9489;50.948;3.114;2023-07-13T06:24:22;18.10;99.50
18721;DHT22;9489;50.948;3.114;2023-07-13T06:26:47;18.20;92.10
18721;DHT22;9489;50.948;3.114;2023-07-13T06:29:13;18.30;74.40
18721;DHT22;9489;50.948;3.114;2023-07-13T06:31:38;18.30;71.10
18721;DHT22;9489;50.948;3.114;2023-07-13T06:34:04;18.20;84.70
18721;DHT22;9489;50.948;3.114;2023-07-13T06:36:30;18.20;72.10
18721;DHT22;9489;50.948;3.114;2023-07-13T06:38:55;18.30;66.10
18721;DHT22;9489;50.948;3.114;2023-07-13T06:41:21;18.40;56.80
18721;DHT22;9489;50.948;3.114;2023-07-13T06:43:47;18.40;39.30
18721;DHT22;9489;50.948;3.114;2023-07-13T06:46:13;18.40;48.00
18721;DHT22;9489;50.948;3.114;2023-07-13T06:48:38;18.50;48.20
18721;DHT22;9489;50.948;3.114;2023-07-13T06:51:04;18.60;30.70
18721;DHT22;9489;50.948;3.114;2023-07-13T06:53:30;18.70;27.30
18721;DHT22;9489;50.948;3.114;2023-07-13T06:55:55;18.80;19.00
18721;DHT22;9489;50.948;3.114;2023-07-13T06:58:22;18.90;4.30
18721;DHT22;9489;50.948;3.114;2023-07-13T07:00:51;19.00;1.00
18721;DHT22;9489;50.948;3.114;2023-07-13T07:03:17;19.00;1.00
18721;DHT22;9489;50.948;3.114;2023-07-13T07:05:43;19.10;1.00
18721;DHT22;9489;50.948;3.114;2023-07-13T07:08:08;19.30;1.00
18721;DHT22;9489;50.948;3.114;2023-07-13T07:10:35;19.40;1.00
18721;DHT22;9489;50.948;3.114;2023-07-13T07:13:01;19.50;1.00
18721;DHT22;9489;50.948;3.114;2023-07-13T07:15:28;19.50;1.00
18721;DHT22;9489;50.948;3.114;2023-07-13T07:17:53;19.60;1.00
18721;DHT22;9489;50.948;3.114;2023-07-13T07:20:19;19.60;1.00
18721;DHT22;9489;50.948;3.114;2023-07-13T07:22:45;19.60;1.00
18721;DHT22;9489;50.948;3.114;2023-07-13T07:25:12;19.60;1.00
18721;DHT22;9489;50.948;3.114;2023-07-13T07:27:38;19.50;1.00
18721;DHT22;9489;50.948;3.114;2023-07-13T07:30:04;19.40;1.00
18721;DHT22;9489;50.948;3.114;2023-07-13T07:32:30;19.40;1.00
18721;DHT22;9489;50.948;3.114;2023-07-13T07:34:57;19.60;1.00
18721;DHT22;9489;50.948;3.114;2023-07-13T07:37:23;19.70;1.00
18721;DHT22;9489;50.948;3.114;2023-07-13T07:39:49;19.60;1.00
18721;DHT22;9489;50.948;3.114;2023-07-13T07:42:15;19.60;1.00
18721;DHT22;9489;50.948;3.114;2023-07-13T07:44:41;19.60;1.00
18721;DHT22;9489;50.948;3.114;2023-07-13T07:47:08;19.70;1.00
18721;DHT22;9489;50.948;3.114;2023-07-13T07:49:34;19.80;1.00
18721;DHT22;9489;50.948;3.114;2023-07-13T07:52:00;19.80;1.00
18721;DHT22;9489;50.948;3.114;2023-07-13T07:54:26;19.80;1.00
18721;DHT22;9489;50.948;3.114;2023-07-13T07:56:52;19.90;1.00
18721;DHT22;9489;50.948;3.114;2023-07-13T07:59:19;20.00;1.00
18721;DHT22;9489;50.948;3.114;2023-07-13T08:01:44;20.30;1.00
18721;DHT22;9489;50.948;3.114;2023-07-13T08:04:12;20.40;1.00
18721;DHT22;9489;50.948;3.114;2023-07-13T08:06:37;20.40;1.00
18721;DHT22;9489;50.948;3.114;2023-07-13T08:09:03;20.60;99.90
18721;DHT22;9489;50.948;3.114;2023-07-13T08:11:29;20.60;1.00
18721;DHT22;9489;50.948;3.114;2023-07-13T08:13:55;20.70;99.90
18721;DHT22;9489;50.948;3.114;2023-07-13T08:16:22;20.70;99.90
18721;DHT22;9489;50.948;3.114;2023-07-13T08:18:47;20.70;99.90
18721;DHT22;9489;50.948;3.114;2023-07-13T08:21:13;20.90;99.90
18721;DHT22;9489;50.948;3.114;2023-07-13T08:23:39;21.10;1.00
18721;DHT22;9489;50.948;3.114;2023-07-13T08:26:04;21.30;84.40
18721;DHT22;9489;50.948;3.114;2023-07-13T08:28:31;21.70;1.00
18721;DHT22;9489;50.948;3.114;2023-07-13T08:31:05;21.80;99.90
18721;DHT22;9489;50.948;3.114;2023-07-13T08:33:31;22.10;1.00
18721;DHT22;9489;50.948;3.114;2023-07-13T08:35:56;22.30;1.00
18721;DHT22;9489;50.948;3.114;2023-07-13T08:38:22;22.50;99.90
18721;DHT22;9489;50.948;3.114;2023-07-13T08:40:55;22.70;1.00
18721;DHT22;9489;50.948;3.114;2023-07-13T08:43:26;22.80;1.00
18721;DHT22;9489;50.948;3.114;2023-07-13T08:46:38;22.30;1.00
18721;DHT22;9489;50.948;3.114;2023-07-13T08:48:45;22.20;1.00
18721;DHT22;9489;50.948;3.114;2023-07-13T08:51:24;22.30;1.00
18721;DHT22;9489;50.948;3.114;2023-07-13T08:53:57;22.30;1.00
18721;DHT22;9489;50.948;3.114;2023-07-13T08:56:26;22.10;1.00
18721;DHT22;9489;50.948;3.114;2023-07-13T08:58:56;22.00;1.00
18721;DHT22;9489;50.948;3.114;2023-07-13T09:01:32;22.00;99.90
18721;DHT22;9489;50.948;3.114;2023-07-13T09:12:19;24.20;1.00
18721;DHT22;9489;50.948;3.114;2023-07-13T09:14:55;23.50;99.90
18721;DHT22;9489;50.948;3.114;2023-07-13T09:17:29;23.40;34.20
18721;DHT22;9489;50.948;3.114;2023-07-13T09:20:00;23.50;60.00
18721;DHT22;9489;50.948;3.114;2023-07-13T09:22:26;24.20;1.00
18721;DHT22;9489;50.948;3.114;2023-07-13T09:25:00;24.70;1.00
18721;DHT22;9489;50.948;3.114;2023-07-13T09:27:33;25.20;1.00
18721;DHT22;9489;50.948;3.114;2023-07-13T09:32:31;25.50;99.90
18721;DHT22;9489;50.948;3.114;2023-07-13T09:34:58;25.40;99.90
18721;DHT22;9489;50.948;3.114;2023-07-13T09:37:31;25.30;81.00
18721;DHT22;9489;50.948;3.114;2023-07-13T09:39:59;24.90;99.90
18721;DHT22;9489;50.948;3.114;2023-07-13T09:42:30;25.10;99.90
18721;DHT22;9489;50.948;3.114;2023-07-13T09:45:00;24.60;99.90
18721;DHT22;9489;50.948;3.114;2023-07-13T09:47:33;23.70;99.90
18721;DHT22;9489;50.948;3.114;2023-07-13T09:50:06;23.30;1.00
18721;DHT22;9489;50.948;3.114;2023-07-13T09:52:44;23.30;1.00
18721;DHT22;9489;50.948;3.114;2023-07-13T09:55:29;23.20;99.90
18721;DHT22;9489;50.948;3.114;2023-07-13T09:57:55;22.40;99.90
18721;DHT22;9489;50.948;3.114;2023-07-13T10:00:28;20.80;1.00
18721;DHT22;9489;50.948;3.114;2023-07-13T10:03:17;19.90;1.00
18721;DHT22;9489;50.948;3.114;2023-07-13T10:05:45;19.10;1.00
18721;DHT22;9489;50.948;3.114;2023-07-13T10:08:19;18.90;7.00
18721;DHT22;9489;50.948;3.114;2023-07-13T10:10:46;19.00;54.70
18721;DHT22;9489;50.948;3.114;2023-07-13T10:13:35;19.00;60.60
18721;DHT22;9489;50.948;3.114;2023-07-13T10:16:06;19.00;98.00
18721;DHT22;9489;50.948;3.114;2023-07-13T10:18:46;19.20;99.90
18721;DHT22;9489;50.948;3.114;2023-07-13T10:23:41;19.60;15.40
18721;DHT22;9489;50.948;3.114;2023-07-13T10:26:14;20.00;1.00
18721;DHT22;9489;50.948;3.114;2023-07-13T10:28:45;20.40;1.00
18721;DHT22;9489;50.948;3.114;2023-07-13T10:31:14;20.70;1.00
18721;DHT22;9489;50.948;3.114;2023-07-13T10:33:41;20.90;1.00
18721;DHT22;9489;50.948;3.114;2023-07-13T10:36:17;21.00;1.00
18721;DHT22;9489;50.948;3.114;2023-07-13T10:38:47;21.30;1.00
18721;DHT22;9489;50.948;3.114;2023-07-13T10:41:20;21.40;1.00
18721;DHT22;9489;50.948;3.114;2023-07-13T10:43:52;21.50;1.00
18721;DHT22;9489;50.948;3.114;2023-07-13T10:46:21;21.70;1.00
18721;DHT22;9489;50.948;3.114;2023-07-13T10:48:53;22.10;1.00
18721;DHT22;9489;50.948;3.114;2023-07-13T10:51:21;22.60;1.00
18721;DHT22;9489;50.948;3.114;2023-07-13T10:53:47;23.10;99.90
18721;DHT22;9489;50.948;3.114;2023-07-13T10:56:22;23.50;1.00
18721;DHT22;9489;50.948;3.114;2023-07-13T10:59:11;23.70;99.90
18721;DHT22;9489;50.948;3.114;2023-07-13T11:04:29;23.10;1.00
18721;DHT22;9489;50.948;3.114;2023-07-13T11:07:26;22.80;99.90
18721;DHT22;9489;50.948;3.114;2023-07-13T11:09:55;22.50;99.90
18721;DHT22;9489;50.948;3.114;2023-07-13T11:20:22;23.20;1.00
18721;DHT22;9489;50.948;3.114;2023-07-13T11:28:06;24.80;99.90
18721;DHT22;9489;50.948;3.114;2023-07-13T11:36:20;24.70;1.00
18721;DHT22;9489;50.948;3.114;2023-07-13T11:41:45;25.50;99.90
18721;DHT22;9489;50.948;3.114;2023-07-13T11:44:18;25.70;96.30
18721;DHT22;9489;50.948;3.114;2023-07-13T11:46:58;25.60;83.70
18721;DHT22;9489;50.948;3.114;2023-07-13T11:49:30;25.50;1.00
18721;DHT22;9489;50.948;3.114;2023-07-13T11:51:58;25.30;1.00
18721;DHT22;9489;50.948;3.114;2023-07-13T11:54:46;25.50;1.00
18721;DHT22;9489;50.948;3.114;2023-07-13T11:59:58;26.20;1.00
18721;DHT22;9489;50.948;3.114;2023-07-13T12:02:28;25.90;1.00
18721;DHT22;9489;50.948;3.114;2023-07-13T12:04:55;25.70;1.00
18721;DHT22;9489;50.948;3.114;2023-07-13T12:07:20;25.80;1.00
18721;DHT22;9489;50.948;3.114;2023-07-13T12:09:46;25.80;1.00
18721;DHT22;9489;50.948;3.114;2023-07-13T12:12:13;25.80;1.00
18721;DHT22;9489;50.948;3.114;2023-07-13T12:14:40;25.80;1.00
18721;DHT22;9489;50.948;3.114;2023-07-13T12:17:15;25.60;1.00
18721;DHT22;9489;50.948;3.114;2023-07-13T12:19:41;25.60;1.00
18721;DHT22;9489;50.948;3.114;2023-07-13T12:22:12;25.70;1.00
18721;DHT22;9489;50.948;3.114;2023-07-13T12:24:40;25.70;1.00
18721;DHT22;9489;50.948;3.114;2023-07-13T12:27:20;26.00;1.00
18721;DHT22;9489;50.948;3.114;2023-07-13T12:33:16;26.20;1.00
18721;DHT22;9489;50.948;3.114;2023-07-13T12:35:49;26.00;1.00
18721;DHT22;9489;50.948;3.114;2023-07-13T12:38:16;25.90;1.00
18721;DHT22;9489;50.948;3.114;2023-07-13T12:40:42;26.00;1.00
18721;DHT22;9489;50.948;3.114;2023-07-13T12:43:12;26.10;1.00
18721;DHT22;9489;50.948;3.114;2023-07-13T12:45:39;26.00;1.00
18721;DHT22;9489;50.948;3.114;2023-07-13T12:48:20;26.00;1.00
18721;DHT22;9489;50.948;3.114;2023-07-13T12:50:47;26.10;1.00
18721;DHT22;9489;50.948;3.114;2023-07-13T12:53:22;26.10;1.00
18721;DHT22;9489;50.948;3.114;2023-07-13T12:55:58;26.00;1.00
18721;DHT22;9489;50.948;3.114;2023-07-13T12:58:36;26.00;1.00
18721;DHT22;9489;50.948;3.114;2023-07-13T13:01:04;25.60;1.00
18721;DHT22;9489;50.948;3.114;2023-07-13T13:03:37;25.60;1.00
18721;DHT22;9489;50.948;3.114;2023-07-13T13:06:05;25.60;1.00
18721;DHT22;9489;50.948;3.114;2023-07-13T13:08:34;25.40;1.00
18721;DHT22;9489;50.948;3.114;2023-07-13T13:11:01;25.60;1.00
18721;DHT22;9489;50.948;3.114;2023-07-13T13:13:27;25.50;1.00
18721;DHT22;9489;50.948;3.114;2023-07-13T13:15:52;25.40;1.00
18721;DHT22;9489;50.948;3.114;2023-07-13T13:18:20;25.20;1.00
18721;DHT22;9489;50.948;3.114;2023-07-13T13:20:48;25.00;1.00
18721;DHT22;9489;50.948;3.114;2023-07-13T13:23:18;24.90;1.00
18721;DHT22;9489;50.948;3.114;2023-07-13T13:25:48;24.70;1.00
18721;DHT22;9489;50.948;3.114;2023-07-13T13:28:17;24.80;1.00
18721;DHT22;9489;50.948;3.114;2023-07-13T13:30:45;24.80;1.00
18721;DHT22;9489;50.948;3.114;2023-07-13T13:33:13;24.90;1.00
18721;DHT22;9489;50.948;3.114;2023-07-13T13:35:40;25.10;1.00
18721;DHT22;9489;50.948;3.114;2023-07-13T13:38:17;25.30;1.00
18721;DHT22;9489;50.948;3.114;2023-07-13T13:40:45;25.40;1.00
18721;DHT22;9489;50.948;3.114;2023-07-13T13:43:18;25.60;1.00
18721;DHT22;9489;50.948;3.114;2023-07-13T13:45:45;25.70;1.00
18721;DHT22;9489;50.948;3.114;2023-07-13T13:48:20;25.70;1.00
18721;DHT22;9489;50.948;3.114;2023-07-13T13:50:48;25.90;1.00
18721;DHT22;9489;50.948;3.114;2023-07-13T13:53:14;25.90;1.00
18721;DHT22;9489;50.948;3.114;2023-07-13T13:55:40;25.60;1.00
18721;DHT22;9489;50.948;3.114;2023-07-13T13:58:08;25.20;1.00
18721;DHT22;9489;50.948;3.114;2023-07-13T14:00:35;24.90;1.00
18721;DHT22;9489;50.948;3.114;2023-07-13T14:03:00;25.00;1.00
18721;DHT22;9489;50.948;3.114;2023-07-13T14:05:27;25.20;1.00
18721;DHT22;9489;50.948;3.114;2023-07-13T14:07:53;25.20;1.00
18721;DHT22;9489;50.948;3.114;2023-07-13T14:10:20;25.10;1.00
18721;DHT22;9489;50.948;3.114;2023-07-13T14:12:51;25.00;1.00
18721;DHT22;9489;50.948;3.114;2023-07-13T14:15:26;25.00;1.00
18721;DHT22;9489;50.948;3.114;2023-07-13T14:17:53;25.00;1.00
18721;DHT22;9489;50.948;3.114;2023-07-13T14:20:20;25.00;1.00
18721;DHT22;9489;50.948;3.114;2023-07-13T14:22:48;24.80;1.00
18721;DHT22;9489;50.948;3.114;2023-07-13T14:25:16;24.70;1.00
18721;DHT22;9489;50.948;3.114;2023-07-13T14:27:43;24.70;1.00
18721;DHT22;9489;50.948;3.114;2023-07-13T14:30:17;24.80;1.00
18721;DHT22;9489;50.948;3.114;2023-07-13T14:32:43;24.90;1.00
18721;DHT22;9489;50.948;3.114;2023-07-13T14:35:13;25.00;1.00
18721;DHT22;9489;50.948;3.114;2023-07-13T14:37:42;25.20;1.00
18721;DHT22;9489;50.948;3.114;2023-07-13T14:40:16;25.50;1.00
18721;DHT22;9489;50.948;3.114;2023-07-13T14:42:42;25.50;1.00
18721;DHT22;9489;50.948;3.114;2023-07-13T14:45:16;25.50;1.00
18721;DHT22;9489;50.948;3.114;2023-07-13T14:47:42;25.30;1.00
18721;DHT22;9489;50.948;3.114;2023-07-13T14:50:17;25.10;1.00
18721;DHT22;9489;50.948;3.114;2023-07-13T14:52:44;25.00;1.00
18721;DHT22;9489;50.948;3.114;2023-07-13T14:55:11;25.20;1.00
18721;DHT22;9489;50.948;3.114;2023-07-13T14:57:38;25.20;1.00
18721;DHT22;9489;50.948;3.114;2023-07-13T15:00:09;25.10;1.00
18721;DHT22;9489;50.948;3.114;2023-07-13T15:02:38;25.10;1.00
18721;DHT22;9489;50.948;3.114;2023-07-13T15:05:25;25.20;1.00
18721;DHT22;9489;50.948;3.114;2023-07-13T15:07:53;25.10;1.00
18721;DHT22;9489;50.948;3.114;2023-07-13T15:10:36;24.90;1.00
18721;DHT22;9489;50.948;3.114;2023-07-13T15:13:21;24.90;1.00
18721;DHT22;9489;50.948;3.114;2023-07-13T15:15:49;24.80;1.00
18721;DHT22;9489;50.948;3.114;2023-07-13T15:18:17;24.70;1.00
18721;DHT22;9489;50.948;3.114;2023-07-13T15:20:45;24.70;1.00
18721;DHT22;9489;50.948;3.114;2023-07-13T15:23:13;24.80;1.00
18721;DHT22;9489;50.948;3.114;2023-07-13T15:25:39;24.80;1.00
18721;DHT22;9489;50.948;3.114;2023-07-13T15:28:05;24.90;1.00
18721;DHT22;9489;50.948;3.114;2023-07-13T15:30:38;24.80;1.00
18721;DHT22;9489;50.948;3.114;2023-07-13T15:35:36;24.80;1.00
18721;DHT22;9489;50.948;3.114;2023-07-13T15:38:13;24.70;1.00
18721;DHT22;9489;50.948;3.114;2023-07-13T15:40:39;24.60;1.00
18721;DHT22;9489;50.948;3.114;2023-07-13T15:43:13;24.70;1.00
18721;DHT22;9489;50.948;3.114;2023-07-13T15:45:40;24.80;1.00
18721;DHT22;9489;50.948;3.114;2023-07-13T15:48:21;24.70;1.00
18721;DHT22;9489;50.948;3.114;2023-07-13T15:50:52;24.60;1.00
18721;DHT22;9489;50.948;3.114;2023-07-13T15:53:22;24.30;1.00
18721;DHT22;9489;50.948;3.114;2023-07-13T15:55:48;24.30;1.00
18721;DHT22;9489;50.948;3.114;2023-07-13T15:58:14;24.30;1.00
18721;DHT22;9489;50.948;3.114;2023-07-13T16:00:40;24.30;1.00
18721;DHT22;9489;50.948;3.114;2023-07-13T16:03:07;24.20;1.00
18721;DHT22;9489;50.948;3.114;2023-07-13T16:05:33;24.20;1.00
18721;DHT22;9489;50.948;3.114;2023-07-13T16:07:59;24.30;1.00
18721;DHT22;9489;50.948;3.114;2023-07-13T16:10:37;24.40;1.00
18721;DHT22;9489;50.948;3.114;2023-07-13T16:13:15;24.50;1.00
18721;DHT22;9489;50.948;3.114;2023-07-13T16:15:42;24.60;1.00
18721;DHT22;9489;50.948;3.114;2023-07-13T16:18:13;24.50;1.00
18721;DHT22;9489;50.948;3.114;2023-07-13T16:20:43;24.50;1.00
18721;DHT22;9489;50.948;3.114;2023-07-13T16:23:11;24.50;1.00
18721;DHT22;9489;50.948;3.114;2023-07-13T16:25:37;24.20;1.00
18721;DHT22;9489;50.948;3.114;2023-07-13T16:28:03;24.00;1.00
18721;DHT22;9489;50.948;3.114;2023-07-13T16:30:30;23.90;1.00
18721;DHT22;9489;50.948;3.114;2023-07-13T16:32:58;23.90;1.00
18721;DHT22;9489;50.948;3.114;2023-07-13T16:35:31;24.00;1.00
18721;DHT22;9489;50.948;3.114;2023-07-13T16:38:03;24.30;1.00
18721;DHT22;9489;50.948;3.114;2023-07-13T16:40:33;24.30;1.00
18721;DHT22;9489;50.948;3.114;2023-07-13T16:43:00;24.10;1.00
18721;DHT22;9489;50.948;3.114;2023-07-13T16:45:31;24.10;1.00
18721;DHT22;9489;50.948;3.114;2023-07-13T16:48:00;24.00;1.00
18721;DHT22;9489;50.948;3.114;2023-07-13T16:50:32;24.00;1.00